createdAt,value
2022-08-25T00:02:55.203Z,23.25
2022-08-25T00:08:00.710Z,23.23
2022-08-25T00:13:04.883Z,23.22
2022-08-25T00:18:19.462Z,23.17
2022-08-25T00:23:24.815Z,23.17
2022-08-25T00:28:28.667Z,23.13
2022-08-25T00:33:32.211Z,23.12
2022-08-25T00:38:38.175Z,23.12
2022-08-25T00:43:47.523Z,23.10
2022-08-25T00:48:54.714Z,23.07
2022-08-25T00:53:59.675Z,23.02
2022-08-25T00:59:04.833Z,22.99
2022-08-25T01:04:08.310Z,22.94
2022-08-25T01:09:14.481Z,22.89
2022-08-25T01:14:20.391Z,22.87
2022-08-25T01:19:23.343Z,22.82
2022-08-25T01:24:35.430Z,22.76
2022-08-25T01:29:38.945Z,22.70
2022-08-25T01:34:45.594Z,22.61
2022-08-25T01:39:50.260Z,22.54
2022-08-25T01:44:53.322Z,22.48
2022-08-25T01:49:56.281Z,22.38
2022-08-25T01:55:00.558Z,22.35
2022-08-25T02:00:05.815Z,22.28
2022-08-25T02:05:20.318Z,22.21
2022-08-25T02:10:27.811Z,22.16
2022-08-25T02:15:30.938Z,22.12
2022-08-25T02:20:36.350Z,22.05
2022-08-25T02:25:42.153Z,22.00
2022-08-25T02:30:45.921Z,21.95
2022-08-25T02:35:49.324Z,21.85
2022-08-25T02:40:53.673Z,21.79
2022-08-25T02:45:56.778Z,21.71
2022-08-25T02:51:02.155Z,21.65
2022-08-25T02:56:07.605Z,21.59
2022-08-25T03:01:12.195Z,21.55
2022-08-25T03:06:20.027Z,21.49
2022-08-25T03:11:25.084Z,21.44
2022-08-25T03:16:28.302Z,21.36
2022-08-25T03:21:32.843Z,21.30
2022-08-25T03:26:55.911Z,21.23
2022-08-25T03:31:59.827Z,21.18
2022-08-25T03:37:02.903Z,21.12
2022-08-25T03:42:08.378Z,21.08
2022-08-25T03:47:11.320Z,20.97
2022-08-25T03:52:14.387Z,20.90
2022-08-25T03:57:20.718Z,20.83
2022-08-25T04:02:23.898Z,20.75
2022-08-25T04:07:26.995Z,20.72
2022-08-25T04:12:33.522Z,20.65
2022-08-25T04:17:39.725Z,20.64
2022-08-25T04:22:44.846Z,20.58
2022-08-25T04:27:49.602Z,20.52
2022-08-25T04:32:52.836Z,20.49
2022-08-25T04:37:55.797Z,20.43
2022-08-25T04:43:01.675Z,20.38
2022-08-25T04:48:05.000Z,20.29
2022-08-25T04:53:08.233Z,20.28
2022-08-25T04:58:16.482Z,20.25
2022-08-25T05:03:19.894Z,20.25
2022-08-25T05:08:23.244Z,20.26
2022-08-25T05:13:28.615Z,20.29
2022-08-25T05:18:34.695Z,20.33
2022-08-25T05:23:38.197Z,20.37
2022-08-25T05:28:43.144Z,20.44
2022-08-25T05:33:46.257Z,20.48
2022-08-25T05:38:49.506Z,20.51
2022-08-25T05:43:53.851Z,20.52
2022-08-25T05:48:56.934Z,20.62
2022-08-25T05:54:00.030Z,20.79
2022-08-25T05:59:09.160Z,21.02
2022-08-25T06:04:12.710Z,21.26
2022-08-25T06:09:15.778Z,21.50
2022-08-25T06:14:21.212Z,21.71
2022-08-25T06:19:24.315Z,21.80
2022-08-25T06:24:28.844Z,21.95
2022-08-25T06:29:33.284Z,22.10
2022-08-25T06:34:37.422Z,22.26
2022-08-25T06:39:40.591Z,22.42
2022-08-25T06:44:45.384Z,22.58
2022-08-25T06:49:48.524Z,22.77
2022-08-25T06:54:52.228Z,22.95
2022-08-25T06:59:56.537Z,23.13
2022-08-25T07:05:00.474Z,23.29
2022-08-25T07:10:03.473Z,23.36
2022-08-25T07:15:19.884Z,23.40
2022-08-25T07:25:26.171Z,23.56
2022-08-25T07:30:32.416Z,23.66
2022-08-25T07:35:37.793Z,23.75
2022-08-25T07:40:43.033Z,23.86
2022-08-25T07:45:49.412Z,24.05
2022-08-25T07:50:53.242Z,24.25
2022-08-25T07:55:56.241Z,24.45
2022-08-25T08:01:00.723Z,24.80
2022-08-25T08:06:08.919Z,25.21
2022-08-25T08:11:16.474Z,25.45
2022-08-25T08:16:21.880Z,25.81
2022-08-25T08:21:27.240Z,26.27
2022-08-25T08:26:55.257Z,26.72
2022-08-25T08:31:58.971Z,27.18
2022-08-25T08:37:02.800Z,27.69
2022-08-25T08:42:18.845Z,28.08
2022-08-25T08:47:35.728Z,28.69
2022-08-25T08:52:44.470Z,29.02
2022-08-25T08:57:51.866Z,29.30
2022-08-25T09:03:04.666Z,29.54
2022-08-25T09:08:12.937Z,29.84
2022-08-25T09:13:26.163Z,30.25
2022-08-25T09:18:41.209Z,30.79
2022-08-25T09:24:11.781Z,31.25
2022-08-25T09:29:21.819Z,31.71
2022-08-25T09:34:32.019Z,32.11
2022-08-25T09:39:35.006Z,32.41
2022-08-25T09:44:43.819Z,32.65
2022-08-25T09:49:50.749Z,32.77
2022-08-25T09:54:55.007Z,32.94
2022-08-25T09:59:58.270Z,33.14
2022-08-25T10:05:19.933Z,33.35
2022-08-25T10:10:32.415Z,33.47
2022-08-25T10:15:37.254Z,33.55
2022-08-25T10:20:42.250Z,33.55
2022-08-25T10:25:59.238Z,33.58
2022-08-25T10:31:12.420Z,33.53
2022-08-25T10:36:21.570Z,33.60
2022-08-25T10:41:51.329Z,33.84
2022-08-25T10:47:07.121Z,34.17
2022-08-25T10:52:17.471Z,34.50
2022-08-25T10:57:28.229Z,35.05
2022-08-25T11:03:03.409Z,35.49
2022-08-25T11:08:15.551Z,35.68
2022-08-25T11:13:26.285Z,36.03
2022-08-25T11:18:31.906Z,36.30
2022-08-25T11:23:40.902Z,36.56
2022-08-25T11:28:55.439Z,36.77
2022-08-25T11:34:00.576Z,36.81
2022-08-25T11:39:18.018Z,36.82
2022-08-25T11:44:53.301Z,36.50
2022-08-25T11:50:05.076Z,36.65
2022-08-25T11:55:14.443Z,36.78
2022-08-25T12:00:38.955Z,36.90
2022-08-25T12:05:53.623Z,36.78
2022-08-25T12:11:07.209Z,36.90
2022-08-25T12:16:43.542Z,36.86
2022-08-25T12:21:46.890Z,36.93
2022-08-25T12:26:58.622Z,37.10
2022-08-25T12:32:18.984Z,37.20
2022-08-25T12:37:25.663Z,37.21
2022-08-25T12:42:36.405Z,37.36
2022-08-25T12:47:44.737Z,37.30
2022-08-25T12:52:48.653Z,37.49
2022-08-25T12:57:58.711Z,37.60
2022-08-25T13:03:35.225Z,37.45
2022-08-25T13:09:22.059Z,37.32
2022-08-25T13:14:37.794Z,37.43
2022-08-25T13:19:41.490Z,37.51
2022-08-25T13:24:47.489Z,37.62
2022-08-25T13:29:58.108Z,37.85
2022-08-25T13:35:17.604Z,37.94
2022-08-25T13:40:26.719Z,38.06
2022-08-25T13:45:41.895Z,37.97
2022-08-25T13:50:45.292Z,37.97
2022-08-25T13:55:57.198Z,38.23
2022-08-25T14:01:22.596Z,38.42
2022-08-25T14:06:37.056Z,38.51
2022-08-25T14:11:44.686Z,38.51
2022-08-25T14:16:57.407Z,38.57
2022-08-25T14:22:03.029Z,38.64
2022-08-25T14:27:06.544Z,38.52
2022-08-25T14:32:11.325Z,38.68
2022-08-25T14:37:17.394Z,38.64
2022-08-25T14:42:20.460Z,38.45
2022-08-25T14:47:31.824Z,38.23
2022-08-25T14:52:35.672Z,38.10
2022-08-25T14:57:39.018Z,38.07
2022-08-25T15:02:46.731Z,38.25
2022-08-25T15:08:07.672Z,38.46
2022-08-25T15:13:15.253Z,38.54
2022-08-25T15:18:20.055Z,38.68
2022-08-25T15:23:40.173Z,38.64
2022-08-25T15:28:49.674Z,38.72
2022-08-25T15:33:54.763Z,38.77
2022-08-25T15:38:57.887Z,38.66
2022-08-25T15:44:00.853Z,38.77
2022-08-25T15:49:05.392Z,38.76
2022-08-25T15:54:11.042Z,38.65
2022-08-25T15:59:16.884Z,37.68
2022-08-25T16:04:21.375Z,37.41
2022-08-25T16:09:24.781Z,36.98
2022-08-25T16:14:28.203Z,36.90
2022-08-25T16:19:32.938Z,36.67
2022-08-25T16:24:38.451Z,36.61
2022-08-25T16:29:43.828Z,36.21
2022-08-25T16:34:48.208Z,35.26
2022-08-25T16:39:53.870Z,34.18
2022-08-25T16:44:58.213Z,33.50
2022-08-25T16:50:05.009Z,33.48
2022-08-25T16:55:17.658Z,32.99
2022-08-25T17:00:23.743Z,32.76
2022-08-25T17:05:29.230Z,32.57
2022-08-25T17:10:33.590Z,32.12
2022-08-25T17:15:41.262Z,31.69
2022-08-25T17:20:46.635Z,31.21
2022-08-25T17:25:52.073Z,30.65
2022-08-25T17:30:58.552Z,30.56
2022-08-25T17:36:04.839Z,30.36
2022-08-25T17:41:09.595Z,30.12
2022-08-25T17:46:13.181Z,29.65
2022-08-25T17:51:17.800Z,29.42
2022-08-25T17:56:23.874Z,29.06
2022-08-25T18:01:29.222Z,28.69
2022-08-25T18:06:34.764Z,28.45
2022-08-25T18:11:37.796Z,28.18
2022-08-25T18:16:42.259Z,27.89
2022-08-25T18:21:46.925Z,27.52
2022-08-25T18:26:50.435Z,27.26
2022-08-25T18:31:57.030Z,27.07
2022-08-25T18:37:19.848Z,26.57
2022-08-25T18:42:22.918Z,26.24
2022-08-25T18:47:25.983Z,25.99
2022-08-25T18:52:30.418Z,25.72
2022-08-25T18:57:36.861Z,25.50
2022-08-25T19:02:41.968Z,25.24
2022-08-25T19:07:52.063Z,25.11
2022-08-25T19:12:57.102Z,25.00
2022-08-25T19:18:00.790Z,25.01
2022-08-25T19:23:10.916Z,24.80
2022-08-25T19:28:14.131Z,24.73
2022-08-25T19:33:42.195Z,24.43
2022-08-25T19:38:41.886Z,24.21
2022-08-25T19:43:56.336Z,24.12
2022-08-25T19:49:04.900Z,24.03
2022-08-25T19:54:13.863Z,24.00
2022-08-25T19:59:17.917Z,23.94
2022-08-25T20:04:21.327Z,23.75
2022-08-25T20:09:39.629Z,23.60
2022-08-25T20:14:43.826Z,23.55
2022-08-25T20:19:47.120Z,23.36
2022-08-25T20:24:55.795Z,23.20
2022-08-25T20:29:59.747Z,23.05
2022-08-25T20:35:09.377Z,22.99
2022-08-25T20:40:20.776Z,22.89
2022-08-25T20:45:28.973Z,22.89
2022-08-25T20:50:33.660Z,22.79
2022-08-25T20:55:42.555Z,22.60
2022-08-25T21:00:47.914Z,22.55
2022-08-25T21:05:53.596Z,22.54
2022-08-25T21:10:58.596Z,22.65
2022-08-25T21:16:03.038Z,22.57
2022-08-25T21:21:14.103Z,22.42
2022-08-25T21:26:20.807Z,22.37
2022-08-25T21:31:24.041Z,22.28
2022-08-25T21:36:29.819Z,22.33
2022-08-25T21:41:39.139Z,22.17
2022-08-25T21:46:54.534Z,22.07
2022-08-25T21:52:02.416Z,21.97
2022-08-25T21:57:08.761Z,21.95
2022-08-25T22:02:19.283Z,21.85
2022-08-25T22:07:25.695Z,21.78
2022-08-25T22:12:30.128Z,21.75
2022-08-25T22:17:34.305Z,21.73
2022-08-25T22:22:37.545Z,21.78
2022-08-25T22:27:42.107Z,21.81
2022-08-25T22:32:45.404Z,21.75
2022-08-25T22:37:48.708Z,21.71
2022-08-25T22:42:53.322Z,21.71
2022-08-25T22:47:56.593Z,21.64
2022-08-25T22:52:59.594Z,21.72
2022-08-25T22:58:04.730Z,21.77
2022-08-25T23:03:07.987Z,21.77
2022-08-25T23:08:11.129Z,21.75
2022-08-25T23:13:25.019Z,21.67
2022-08-25T23:18:43.068Z,21.64
2022-08-25T23:23:47.670Z,21.63
2022-08-25T23:28:53.810Z,21.61
2022-08-25T23:34:01.291Z,21.52
2022-08-25T23:39:07.731Z,21.55
2022-08-25T23:44:17.332Z,21.59
2022-08-25T23:49:23.507Z,21.43
2022-08-25T23:54:31.182Z,21.43
2022-08-25T23:59:37.837Z,21.40
